Time;durP1;ratioP1;P1;durP2;ratioP2;P2;SDS_P1;SDS_P2;PMS_P1;PMS_P2;Temp;Humidity;BMP_temperature;BMP_pressure;BME280_temperature;BME280_humidity;BME280_pressure;Samples;Min_cycle;Max_cycle;Signal;HPM_P1;HPM_P2
2022/10/28 00:01:51;;;;;;;3.03;2.83;;;24.30;70.50;;;;;;5072420;28;20459;-77
2022/10/28 00:04:19;;;;;;;3.33;3.03;;;24.30;70.50;;;;;;5074081;28;20471;-76
2022/10/28 00:06:48;;;;;;;4.40;4.00;;;24.30;70.50;;;;;;5087980;28;20534;-76
2022/10/28 00:09:16;;;;;;;3.53;3.23;;;24.30;70.50;;;;;;5090910;28;20470;-76
2022/10/28 00:11:45;;;;;;;4.17;2.93;;;24.30;70.50;;;;;;5077256;28;20463;-77
2022/10/28 00:14:14;;;;;;;3.17;2.97;;;24.30;70.50;;;;;;5100913;28;20492;-76
2022/10/28 00:16:42;;;;;;;2.83;2.63;;;24.30;70.50;;;;;;5108502;28;20471;-76
2022/10/28 00:19:12;;;;;;;3.80;3.50;;;24.30;70.50;;;;;;5112606;28;20785;-75
2022/10/28 00:21:42;;;;;;;2.77;2.57;;;24.30;70.50;;;;;;5107654;28;20455;-74
2022/10/28 00:24:12;;;;;;;3.50;3.20;;;24.30;70.50;;;;;;5098370;28;20460;-76
2022/10/28 00:26:42;;;;;;;3.70;3.40;;;24.30;70.50;;;;;;5093599;28;20470;-77
2022/10/28 00:29:13;;;;;;;3.83;3.53;;;24.30;70.50;;;;;;5092715;28;20431;-75
2022/10/28 00:31:42;;;;;;;4.90;3.73;;;24.30;70.50;;;;;;5111437;28;20452;-78
2022/10/28 00:34:13;;;;;;;3.60;3.30;;;24.30;70.50;;;;;;5107395;28;20471;-76
2022/10/28 00:36:43;;;;;;;3.37;3.17;;;24.20;70.50;;;;;;5101936;28;20474;-79
2022/10/28 00:39:13;;;;;;;3.00;2.80;;;24.20;70.50;;;;;;5109979;28;20796;-79
2022/10/28 00:41:43;;;;;;;3.47;3.27;;;24.20;70.50;;;;;;5109567;28;20452;-79
2022/10/28 00:44:46;;;;;;;3.57;3.33;;;24.20;70.50;;;;;;5106957;28;21000;-79
2022/10/28 00:47:20;;;;;;;3.07;2.87;;;24.20;70.50;;;;;;5093178;28;20810;-79
2022/10/28 00:49:51;;;;;;;3.27;2.93;;;24.20;70.50;;;;;;5100948;28;20506;-79
2022/10/28 00:52:24;;;;;;;3.80;3.40;;;24.20;70.50;;;;;;5104155;28;20463;-79
2022/10/28 00:54:53;;;;;;;3.73;3.40;;;24.20;70.50;;;;;;5112031;28;20458;-79
2022/10/28 00:57:27;;;;;;;3.53;3.23;;;24.20;70.50;;;;;;5111946;28;20483;-79
2022/10/28 00:59:59;;;;;;;3.50;3.20;;;24.20;70.50;;;;;;5110655;28;20460;-77
2022/10/28 01:02:27;;;;;;;3.57;3.27;;;24.20;70.50;;;;;;5109800;28;20467;-78
2022/10/28 01:04:55;;;;;;;3.57;3.27;;;24.20;70.40;;;;;;5095998;28;20462;-79
2022/10/28 01:07:24;;;;;;;3.00;2.80;;;24.20;70.50;;;;;;5099484;28;20486;-79
2022/10/28 01:09:52;;;;;;;3.80;3.47;;;24.20;70.50;;;;;;5105617;28;20458;-78
2022/10/28 01:12:32;;;;;;;3.03;2.80;;;24.20;70.50;;;;;;5097338;28;20447;-77
2022/10/28 01:15:09;;;;;;;3.60;3.33;;;24.20;70.50;;;;;;5097943;28;20457;-79
2022/10/28 01:17:51;;;;;;;3.73;3.37;;;24.20;70.40;;;;;;5094634;28;20472;-80
2022/10/28 01:21:11;;;;;;;3.50;3.30;;;24.20;70.50;;;;;;5108101;28;20892;-78
2022/10/28 01:23:48;;;;;;;3.70;3.23;;;24.20;70.50;;;;;;5029714;28;20470;-79
2022/10/28 01:26:54;;;;;;;3.13;2.93;;;24.20;70.50;;;;;;5041147;28;20449;-79
2022/10/28 01:30:07;;;;;;;3.40;3.10;;;24.20;70.50;;;;;;5096528;28;20463;-80
2022/10/28 01:32:50;;;;;;;3.70;3.33;;;24.10;70.50;;;;;;5089475;28;20458;-80
2022/10/28 01:35:25;;;;;;;3.63;3.33;;;24.10;70.50;;;;;;5107652;28;20509;-78
2022/10/28 01:38:19;;;;;;;3.70;3.40;;;24.10;70.50;;;;;;5098613;28;20477;-76
2022/10/28 01:40:55;;;;;;;3.23;3.03;;;24.10;70.50;;;;;;5104690;28;20468;-79
2022/10/28 01:43:27;;;;;;;6.07;3.43;;;24.10;70.50;;;;;;5116081;28;20443;-80
2022/10/28 01:46:00;;;;;;;3.90;3.60;;;24.10;70.50;;;;;;5100812;28;20829;-79
2022/10/28 01:48:35;;;;;;;3.03;2.83;;;24.10;70.40;;;;;;5109381;28;20474;-79
2022/10/28 01:51:13;;;;;;;3.20;3.00;;;24.10;70.50;;;;;;5095550;28;20440;-79
2022/10/28 01:53:45;;;;;;;5.73;3.23;;;24.10;70.50;;;;;;5095377;28;20429;-75
2022/10/28 01:56:17;;;;;;;3.53;3.20;;;24.10;70.50;;;;;;5098976;28;20453;-80
2022/10/28 01:58:46;;;;;;;4.97;4.67;;;24.10;70.50;;;;;;5115731;28;20498;-79
2022/10/28 02:01:17;;;;;;;3.43;3.23;;;24.10;70.50;;;;;;5115726;28;20465;-79
2022/10/28 02:03:47;;;;;;;3.63;3.33;;;24.10;70.50;;;;;;5113767;28;20528;-79
2022/10/28 02:06:20;;;;;;;3.33;3.03;;;24.10;70.40;;;;;;5104366;28;20540;-80
2022/10/28 02:09:02;;;;;;;3.27;2.97;;;24.10;70.50;;;;;;5103903;28;20445;-79
2022/10/28 02:11:43;;;;;;;3.50;3.20;;;24.10;70.50;;;;;;5106813;28;20460;-79
2022/10/28 02:14:25;;;;;;;3.30;3.00;;;24.10;70.50;;;;;;5098927;28;20489;-79
2022/10/28 02:17:00;;;;;;;3.50;3.30;;;24.10;70.50;;;;;;5104717;28;20472;-77
2022/10/28 02:19:38;;;;;;;3.17;2.90;;;24.10;70.50;;;;;;5106226;28;20443;-79
2022/10/28 02:22:18;;;;;;;3.20;2.90;;;24.10;70.50;;;;;;5097066;28;20423;-80
2022/10/28 02:24:53;;;;;;;2.70;2.50;;;24.10;70.40;;;;;;5110284;28;20453;-77
2022/10/28 02:27:30;;;;;;;3.23;2.90;;;24.00;70.40;;;;;;5104344;28;20814;-79
2022/10/28 02:30:03;;;;;;;3.60;3.30;;;24.00;70.40;;;;;;5095001;28;20451;-77
2022/10/28 02:32:37;;;;;;;3.40;3.10;;;24.00;70.40;;;;;;5099642;28;20461;-79
2022/10/28 02:35:12;;;;;;;3.37;3.17;;;24.00;70.40;;;;;;5108986;28;20455;-78
2022/10/28 02:37:43;;;;;;;2.87;2.70;;;24.00;70.40;;;;;;5105519;28;20477;-76
2022/10/28 02:40:18;;;;;;;2.90;2.70;;;24.00;70.40;;;;;;5104873;28;20799;-77
2022/10/28 02:42:50;;;;;;;2.73;2.53;;;24.00;70.30;;;;;;5101635;28;20447;-77
2022/10/28 02:45:23;;;;;;;4.60;3.50;;;24.00;70.30;;;;;;5109584;28;20993;-76
2022/10/28 02:47:56;;;;;;;3.50;3.20;;;24.00;70.30;;;;;;5107684;28;20480;-76
2022/10/28 02:50:32;;;;;;;3.17;2.87;;;24.00;70.30;;;;;;5095512;28;20516;-75
2022/10/28 02:53:03;;;;;;;3.33;3.03;;;24.00;70.30;;;;;;5094921;28;20451;-76
2022/10/28 02:55:37;;;;;;;2.67;2.47;;;24.00;70.30;;;;;;5106943;28;20950;-77
2022/10/28 02:58:06;;;;;;;3.10;2.90;;;24.00;70.30;;;;;;5114061;28;20475;-77
2022/10/28 03:00:34;;;;;;;3.10;2.90;;;24.00;70.30;;;;;;5112834;28;20463;-76
2022/10/28 03:03:02;;;;;;;3.23;2.90;;;24.00;70.30;;;;;;5113927;28;20429;-76
2022/10/28 03:05:32;;;;;;;3.37;3.17;;;24.00;70.30;;;;;;5114690;28;20474;-75
2022/10/28 03:08:00;;;;;;;3.40;2.90;;;24.00;70.20;;;;;;5101899;28;20442;-77
2022/10/28 03:10:28;;;;;;;3.50;3.20;;;24.00;70.30;;;;;;5095446;28;20458;-78
2022/10/28 03:12:56;;;;;;;3.17;2.87;;;24.00;70.20;;;;;;5113445;28;20489;-77
2022/10/28 03:15:24;;;;;;;2.97;2.77;;;24.00;70.20;;;;;;5110230;28;20475;-77
2022/10/28 03:17:52;;;;;;;3.00;2.80;;;24.00;70.20;;;;;;5113267;28;20983;-78
2022/10/28 03:20:21;;;;;;;6.50;3.23;;;24.00;70.20;;;;;;5113985;28;20458;-77
2022/10/28 03:22:50;;;;;;;3.10;2.90;;;24.00;70.20;;;;;;5113112;28;20461;-77
2022/10/28 03:25:19;;;;;;;3.73;3.00;;;24.00;70.20;;;;;;5114200;28;21047;-77
2022/10/28 03:27:47;;;;;;;3.20;2.70;;;24.00;70.20;;;;;;5098172;28;20460;-78
2022/10/28 03:30:17;;;;;;;3.57;3.23;;;24.00;70.20;;;;;;5097925;28;20932;-76
2022/10/28 03:32:45;;;;;;;2.70;2.50;;;23.90;70.20;;;;;;5094867;28;20502;-77
2022/10/28 03:35:13;;;;;;;2.77;2.57;;;23.90;70.20;;;;;;5093195;28;20467;-79
2022/10/28 03:37:42;;;;;;;3.73;3.43;;;23.90;70.20;;;;;;5106617;28;20468;-78
2022/10/28 03:40:13;;;;;;;3.80;3.23;;;23.90;70.20;;;;;;5113386;28;20441;-77
2022/10/28 03:42:41;;;;;;;3.90;3.60;;;23.90;70.20;;;;;;5113052;28;20451;-77
2022/10/28 03:45:10;;;;;;;3.80;3.50;;;23.90;70.20;;;;;;5098253;28;20487;-77
2022/10/28 03:47:39;;;;;;;3.33;3.13;;;23.90;70.20;;;;;;5100519;28;20463;-77
2022/10/28 03:50:08;;;;;;;3.40;3.10;;;23.90;70.20;;;;;;5093290;28;20452;-77
2022/10/28 03:52:36;;;;;;;3.57;3.27;;;23.90;70.10;;;;;;5108375;28;20467;-76
2022/10/28 03:55:05;;;;;;;3.67;3.47;;;23.90;70.10;;;;;;5113768;28;20438;-74
2022/10/28 03:57:34;;;;;;;3.03;2.80;;;23.90;70.10;;;;;;5107560;28;20453;-77
2022/10/28 04:00:03;;;;;;;3.67;3.43;;;23.90;70.10;;;;;;5093152;28;20442;-77
2022/10/28 04:02:38;;;;;;;3.37;3.07;;;23.90;70.10;;;;;;5100431;28;20461;-79
2022/10/28 04:05:07;;;;;;;3.57;2.67;;;23.90;70.10;;;;;;5110592;28;20488;-79
2022/10/28 04:07:35;;;;;;;3.20;2.90;;;23.90;70.00;;;;;;5112665;28;20478;-77
2022/10/28 04:10:04;;;;;;;3.80;3.40;;;23.90;70.10;;;;;;5113821;28;20419;-77
2022/10/28 04:12:32;;;;;;;3.33;3.03;;;23.90;70.00;;;;;;5111560;28;20442;-77
2022/10/28 04:15:01;;;;;;;3.80;3.43;;;23.90;70.00;;;;;;5106353;28;20449;-76
2022/10/28 04:17:29;;;;;;;3.87;3.57;;;23.90;70.00;;;;;;5102350;28;20470;-76
2022/10/28 04:19:58;;;;;;;2.80;2.60;;;23.90;70.00;;;;;;5097396;28;20466;-78
2022/10/28 04:22:26;;;;;;;2.80;2.60;;;23.90;70.00;;;;;;5100043;28;20491;-78
2022/10/28 04:24:54;;;;;;;3.10;2.90;;;23.90;70.00;;;;;;5099666;28;20480;-77
2022/10/28 04:27:22;;;;;;;3.20;2.97;;;23.90;70.00;;;;;;5106413;28;20921;-80
2022/10/28 04:29:50;;;;;;;4.57;3.30;;;23.90;70.00;;;;;;5098953;28;20456;-82
2022/10/28 04:32:20;;;;;;;3.30;3.10;;;23.90;70.00;;;;;;5101486;28;20472;-74
2022/10/28 04:34:48;;;;;;;3.30;3.00;;;23.80;70.10;;;;;;5112620;28;20429;-74
2022/10/28 04:37:16;;;;;;;3.17;2.97;;;23.80;70.00;;;;;;5094231;28;20459;-77
2022/10/28 04:39:47;;;;;;;3.20;2.90;;;23.80;70.10;;;;;;5092789;28;20466;-77
2022/10/28 04:42:15;;;;;;;3.30;3.10;;;23.80;70.10;;;;;;5098358;28;20474;-75
2022/10/28 04:44:43;;;;;;;3.67;3.37;;;23.80;70.10;;;;;;5101362;28;20476;-77
2022/10/28 04:47:11;;;;;;;3.93;2.83;;;23.80;70.20;;;;;;5095292;28;20458;-76
2022/10/28 04:49:41;;;;;;;3.23;3.00;;;23.80;70.20;;;;;;5102314;28;20454;-78
2022/10/28 04:52:09;;;;;;;3.03;2.77;;;23.80;70.20;;;;;;5096984;28;20460;-77
2022/10/28 04:54:42;;;;;;;3.00;2.73;;;23.80;70.20;;;;;;5098528;28;20465;-79
2022/10/28 04:57:10;;;;;;;3.50;3.20;;;23.80;70.40;;;;;;5100525;28;20611;-79
2022/10/28 04:59:39;;;;;;;2.63;2.43;;;23.80;70.50;;;;;;5086114;28;20480;-78
2022/10/28 05:02:07;;;;;;;3.37;3.07;;;23.80;70.50;;;;;;5097933;28;20827;-79
2022/10/28 05:04:35;;;;;;;4.23;3.07;;;23.80;70.50;;;;;;5091246;28;20456;-79
2022/10/28 05:07:05;;;;;;;3.47;3.17;;;23.80;70.50;;;;;;5098704;28;20464;-80
2022/10/28 05:09:33;;;;;;;3.90;3.40;;;23.80;70.50;;;;;;5100420;28;20455;-78
2022/10/28 05:12:02;;;;;;;3.57;3.27;;;23.80;70.60;;;;;;5100007;28;20537;-79
2022/10/28 05:14:30;;;;;;;3.23;3.03;;;23.80;70.70;;;;;;5101739;28;20479;-81
2022/10/28 05:16:58;;;;;;;3.20;2.93;;;23.80;70.70;;;;;;5104116;28;20470;-81
2022/10/28 05:19:26;;;;;;;6.20;3.53;;;23.80;70.70;;;;;;5098754;28;20474;-79
2022/10/28 05:21:54;;;;;;;4.43;3.40;;;23.80;70.70;;;;;;5097286;28;20461;-81
2022/10/28 05:24:24;;;;;;;6.90;3.23;;;23.80;70.70;;;;;;5097632;28;20553;-81
2022/10/28 05:26:52;;;;;;;3.20;2.90;;;23.80;70.70;;;;;;5093091;28;20461;-80
2022/10/28 05:29:21;;;;;;;7.70;4.23;;;23.70;70.70;;;;;;5101555;28;20946;-78
2022/10/28 05:31:49;;;;;;;2.90;2.70;;;23.80;70.70;;;;;;5099138;28;20886;-79
2022/10/28 05:34:17;;;;;;;4.60;2.90;;;23.70;70.70;;;;;;5099298;28;20869;-78
2022/10/28 05:36:45;;;;;;;3.17;2.90;;;23.80;70.70;;;;;;5089623;28;20458;-78
2022/10/28 05:39:13;;;;;;;4.43;3.17;;;23.70;70.70;;;;;;5093911;28;20474;-82
2022/10/28 05:41:43;;;;;;;3.40;3.20;;;23.70;70.70;;;;;;5088183;28;21040;-82
2022/10/28 05:44:11;;;;;;;3.33;3.13;;;23.70;70.60;;;;;;5092407;28;20473;-82
2022/10/28 05:46:41;;;;;;;3.83;3.20;;;23.70;70.50;;;;;;5091080;28;20461;-82
2022/10/28 05:49:09;;;;;;;3.40;3.10;;;23.70;70.50;;;;;;5091800;28;20460;-81
2022/10/28 05:51:37;;;;;;;4.20;3.50;;;23.70;70.40;;;;;;5092958;28;20464;-77
2022/10/28 05:54:05;;;;;;;7.67;3.90;;;23.70;70.50;;;;;;5093682;28;20467;-80
2022/10/28 05:56:33;;;;;;;5.07;3.37;;;23.70;71.20;;;;;;5098895;28;20480;-81
2022/10/28 05:59:03;;;;;;;5.00;3.37;;;23.70;70.80;;;;;;5108599;28;20465;-81
2022/10/28 06:01:31;;;;;;;5.90;3.43;;;23.70;70.60;;;;;;5101489;28;20463;-81
2022/10/28 06:03:59;;;;;;;4.80;3.50;;;23.70;70.70;;;;;;5100635;28;20465;-79
2022/10/28 06:06:28;;;;;;;4.73;4.33;;;23.70;70.30;;;;;;5093256;28;20447;-79
2022/10/28 06:08:57;;;;;;;6.50;3.90;;;23.70;70.10;;;;;;5092279;28;20464;-79
2022/10/28 06:11:25;;;;;;;3.90;3.60;;;23.70;70.20;;;;;;5099334;28;20484;-79
2022/10/28 06:13:53;;;;;;;5.93;4.40;;;23.70;70.00;;;;;;5096260;28;20578;-80
2022/10/28 06:16:23;;;;;;;4.30;3.33;;;23.70;70.00;;;;;;5100995;28;20459;-76
2022/10/28 06:18:51;;;;;;;3.73;3.43;;;23.70;69.90;;;;;;5094214;28;20468;-79
2022/10/28 06:21:19;;;;;;;5.27;3.73;;;23.70;69.90;;;;;;5094797;28;21221;-76
2022/10/28 06:23:48;;;;;;;5.13;2.77;;;23.70;69.70;;;;;;5102978;27;20459;-78
2022/10/28 06:26:16;;;;;;;4.07;3.67;;;23.70;69.70;;;;;;5097598;28;20483;-78
2022/10/28 06:28:47;;;;;;;3.90;3.50;;;23.70;69.60;;;;;;5091465;28;20450;-76
2022/10/28 06:31:15;;;;;;;4.33;4.03;;;23.70;69.40;;;;;;5091335;28;20451;-71
2022/10/28 06:33:44;;;;;;;3.60;3.30;;;23.60;69.40;;;;;;5098626;28;21185;-76
2022/10/28 06:36:13;;;;;;;4.67;3.30;;;23.60;69.20;;;;;;5110172;28;20456;-76
2022/10/28 06:38:41;;;;;;;4.30;3.90;;;23.60;69.60;;;;;;5101154;28;20456;-74
2022/10/28 06:41:09;;;;;;;5.30;3.53;;;23.60;69.80;;;;;;5094582;28;20482;-75
2022/10/28 06:43:37;;;;;;;5.03;3.90;;;23.70;69.70;;;;;;5099851;28;20439;-78
2022/10/28 06:46:06;;;;;;;4.03;3.57;;;23.70;69.80;;;;;;5105691;28;20568;-77
2022/10/28 06:48:34;;;;;;;4.40;4.10;;;23.70;70.00;;;;;;5103161;28;20455;-77
2022/10/28 06:51:03;;;;;;;3.73;3.43;;;23.70;70.00;;;;;;5092610;28;20461;-77
2022/10/28 06:53:31;;;;;;;3.70;3.00;;;23.70;70.20;;;;;;5096699;28;20462;-76
2022/10/28 06:56:00;;;;;;;4.47;3.67;;;23.70;70.20;;;;;;5100593;28;20932;-76
2022/10/28 06:58:28;;;;;;;4.30;3.77;;;23.80;70.20;;;;;;5099678;28;21291;-78
2022/10/28 07:00:56;;;;;;;4.40;4.00;;;23.80;70.30;;;;;;5092814;28;20473;-77
2022/10/28 07:03:24;;;;;;;5.43;3.60;;;23.80;70.30;;;;;;5098067;28;20449;-78
2022/10/28 07:05:52;;;;;;;3.70;3.23;;;23.80;70.30;;;;;;5097557;28;20456;-77
2022/10/28 07:08:22;;;;;;;3.17;2.90;;;23.80;70.30;;;;;;5096097;28;20461;-77
2022/10/28 07:10:55;;;;;;;5.47;3.60;;;23.90;70.30;;;;;;5097970;28;20468;-76
2022/10/28 07:13:23;;;;;;;4.40;3.03;;;23.90;70.40;;;;;;5101209;28;21022;-78
2022/10/28 07:15:52;;;;;;;3.53;3.23;;;23.90;70.40;;;;;;5094678;28;20453;-77
2022/10/28 07:18:21;;;;;;;3.47;3.27;;;23.90;70.40;;;;;;5101276;28;20465;-77
2022/10/28 07:20:49;;;;;;;3.40;3.10;;;23.90;70.50;;;;;;5093802;28;20833;-77
2022/10/28 07:23:19;;;;;;;3.80;3.50;;;23.90;70.40;;;;;;5095650;28;20456;-78
2022/10/28 07:25:54;;;;;;;5.60;3.43;;;24.00;70.40;;;;;;5099966;28;20451;-77
2022/10/28 07:28:24;;;;;;;4.00;3.67;;;24.00;70.50;;;;;;5096434;28;20978;-77
2022/10/28 07:30:52;;;;;;;3.87;3.57;;;24.00;70.50;;;;;;5106231;28;20513;-78
2022/10/28 07:33:20;;;;;;;3.53;3.10;;;24.10;70.40;;;;;;5091885;28;20464;-78
2022/10/28 07:35:49;;;;;;;6.83;3.47;;;24.10;70.50;;;;;;5100330;28;20551;-77
2022/10/28 07:38:17;;;;;;;3.77;3.47;;;24.10;70.40;;;;;;5095190;28;20471;-77
2022/10/28 07:40:45;;;;;;;5.50;3.30;;;24.10;70.50;;;;;;5103872;28;20495;-80
2022/10/28 07:43:15;;;;;;;3.50;3.20;;;24.10;70.50;;;;;;5101436;28;20490;-75
2022/10/28 07:45:43;;;;;;;4.80;3.33;;;24.10;70.50;;;;;;5101761;28;20480;-84
2022/10/28 07:48:11;;;;;;;6.47;3.57;;;24.10;70.20;;;;;;5099433;28;20990;-80
2022/10/28 07:50:40;;;;;;;4.53;3.87;;;24.10;70.20;;;;;;5110085;28;20780;-81
2022/10/28 07:53:08;;;;;;;3.73;3.10;;;24.10;70.30;;;;;;5103067;28;20555;-77
2022/10/28 07:55:36;;;;;;;3.80;3.37;;;24.10;70.20;;;;;;5101759;27;20931;-80
2022/10/28 07:58:04;;;;;;;3.77;3.47;;;24.10;70.20;;;;;;5097691;28;20865;-80
2022/10/28 08:00:34;;;;;;;4.73;4.00;;;24.20;70.10;;;;;;5106087;28;20568;-79
2022/10/28 08:03:02;;;;;;;4.20;3.30;;;24.20;70.10;;;;;;5100267;28;20954;-76
2022/10/28 08:05:31;;;;;;;3.90;3.50;;;24.20;70.10;;;;;;5101768;28;20994;-79
2022/10/28 08:07:59;;;;;;;3.63;3.30;;;24.20;70.10;;;;;;5094981;28;20547;-79
2022/10/28 08:10:27;;;;;;;4.17;3.80;;;24.20;70.10;;;;;;5098971;28;20678;-79
2022/10/28 08:12:56;;;;;;;3.60;3.37;;;24.20;70.00;;;;;;5097454;28;20853;-76
2022/10/28 08:15:25;;;;;;;4.30;3.80;;;24.20;70.00;;;;;;5092708;28;20456;-80
2022/10/28 08:17:55;;;;;;;3.30;3.00;;;24.20;69.90;;;;;;5093264;28;20464;-80
2022/10/28 08:20:23;;;;;;;4.40;3.30;;;24.20;69.90;;;;;;5100491;28;20565;-80
2022/10/28 08:22:51;;;;;;;3.30;3.00;;;24.20;69.90;;;;;;5099033;28;20961;-81
2022/10/28 08:25:20;;;;;;;4.50;4.20;;;24.20;69.90;;;;;;5095350;28;20494;-78
2022/10/28 08:27:48;;;;;;;3.97;3.60;;;24.30;69.80;;;;;;5096753;28;20446;-80
2022/10/28 08:30:17;;;;;;;6.13;3.63;;;24.30;69.80;;;;;;5099414;28;20476;-80
2022/10/28 08:32:45;;;;;;;6.90;4.30;;;24.30;69.80;;;;;;5096555;28;20996;-80
2022/10/28 08:35:15;;;;;;;5.60;3.77;;;24.30;69.80;;;;;;5096325;28;20458;-81
2022/10/28 08:37:50;;;;;;;3.80;3.50;;;24.30;69.80;;;;;;5098554;28;20445;-80
2022/10/28 08:40:25;;;;;;;6.97;2.87;;;24.30;69.70;;;;;;5098007;28;20990;-78
2022/10/28 08:43:00;;;;;;;2.93;2.70;;;24.30;69.80;;;;;;5100862;28;20456;-79
2022/10/28 08:45:40;;;;;;;5.40;5.00;;;24.30;69.70;;;;;;5107095;28;20563;-78
2022/10/28 08:48:18;;;;;;;4.60;3.20;;;24.30;69.70;;;;;;5101343;28;20456;-80
2022/10/28 08:50:52;;;;;;;2.90;2.70;;;24.30;69.60;;;;;;5098215;28;20490;-81
2022/10/28 08:53:27;;;;;;;4.00;3.50;;;24.30;69.70;;;;;;5096124;28;20553;-79
2022/10/28 08:56:13;;;;;;;3.00;2.80;;;24.40;69.60;;;;;;5097389;28;20551;-75
2022/10/28 08:58:44;;;;;;;3.40;3.10;;;24.40;69.60;;;;;;5100792;28;20448;-80
2022/10/28 09:01:19;;;;;;;3.43;3.10;;;24.40;69.30;;;;;;5096957;28;21055;-79
2022/10/28 09:03:52;;;;;;;3.50;3.03;;;24.40;69.50;;;;;;5095183;28;20451;-80
2022/10/28 09:06:21;;;;;;;4.73;3.30;;;24.40;69.60;;;;;;5096743;28;20441;-81
2022/10/28 09:08:51;;;;;;;3.57;3.27;;;24.40;69.60;;;;;;5097947;28;20450;-81
2022/10/28 09:11:46;;;;;;;7.40;2.97;;;24.40;69.60;;;;;;5098890;28;20448;-81
2022/10/28 09:14:33;;;;;;;3.33;3.07;;;24.40;69.70;;;;;;5096274;28;21056;-81
2022/10/28 09:17:13;;;;;;;3.23;2.90;;;24.40;69.80;;;;;;5098750;28;20566;-82
2022/10/28 09:19:48;;;;;;;5.40;3.00;;;24.40;69.80;;;;;;5097586;28;20549;-86
2022/10/28 09:22:24;;;;;;;3.10;2.90;;;24.50;69.70;;;;;;5099762;28;20519;-83
2022/10/28 09:24:55;;;;;;;4.07;3.17;;;24.50;69.80;;;;;;5095126;28;20476;-82
2022/10/28 09:27:41;;;;;;;3.50;3.20;;;24.50;69.70;;;;;;5100182;28;20468;-82
2022/10/28 09:30:28;;;;;;;5.17;2.90;;;24.50;69.70;;;;;;5096126;28;20449;-81
2022/10/28 09:33:07;;;;;;;3.57;3.27;;;24.50;69.70;;;;;;5096016;28;20808;-73
2022/10/28 09:35:41;;;;;;;4.27;3.20;;;24.50;69.70;;;;;;5105842;28;20458;-74
2022/10/28 09:38:20;;;;;;;4.00;3.30;;;24.50;69.50;;;;;;5105049;28;20520;-74
2022/10/28 09:40:55;;;;;;;3.20;2.90;;;24.50;69.20;;;;;;5096617;28;20446;-73
2022/10/28 09:43:27;;;;;;;3.70;3.40;;;24.50;69.00;;;;;;5100994;28;20452;-74
2022/10/28 09:46:01;;;;;;;3.33;3.13;;;24.40;68.90;;;;;;5100787;28;20504;-85
2022/10/28 09:48:33;;;;;;;3.50;3.13;;;24.40;68.80;;;;;;5104284;28;20540;-81
2022/10/28 09:51:01;;;;;;;3.87;3.57;;;24.40;68.90;;;;;;5102745;28;20935;-80
2022/10/28 09:53:41;;;;;;;4.43;3.47;;;24.40;68.90;;;;;;5100134;28;20507;-79
2022/10/28 09:56:10;;;;;;;3.63;3.07;;;24.40;69.00;;;;;;5102051;28;20800;-80
2022/10/28 09:58:44;;;;;;;4.13;3.13;;;24.50;69.00;;;;;;5100322;28;20459;-81
2022/10/28 10:01:13;;;;;;;3.20;3.00;;;24.50;69.00;;;;;;5105370;28;20465;-79
2022/10/28 10:03:42;;;;;;;4.43;3.93;;;24.50;68.80;;;;;;5095386;28;20454;-80
2022/10/28 10:06:13;;;;;;;6.60;3.00;;;24.50;69.00;;;;;;5107223;28;20473;-79
2022/10/28 10:08:44;;;;;;;3.47;2.97;;;24.50;68.90;;;;;;5096522;28;20546;-81
2022/10/28 10:11:20;;;;;;;4.77;2.93;;;24.50;68.80;;;;;;5101603;28;20463;-83
2022/10/28 10:13:50;;;;;;;5.73;3.83;;;24.50;68.80;;;;;;5106372;28;20492;-78
2022/10/28 10:16:23;;;;;;;3.47;3.20;;;24.50;68.80;;;;;;5104453;28;20461;-82
2022/10/28 10:18:55;;;;;;;5.50;3.07;;;24.50;68.80;;;;;;5106211;28;20449;-85
2022/10/28 10:21:42;;;;;;;5.40;3.00;;;24.60;68.80;;;;;;5098465;28;20469;-78
2022/10/28 10:24:27;;;;;;;3.90;2.50;;;24.60;68.80;;;;;;5101537;28;20920;-80
2022/10/28 10:26:56;;;;;;;7.23;2.93;;;24.60;68.80;;;;;;5102018;28;20809;-81
2022/10/28 10:29:25;;;;;;;3.33;2.97;;;24.60;68.70;;;;;;5103433;28;20437;-80
2022/10/28 10:32:13;;;;;;;3.43;3.13;;;24.60;68.70;;;;;;5096631;28;20457;-85
2022/10/28 10:34:45;;;;;;;2.93;2.73;;;24.60;68.70;;;;;;5098790;28;20454;-83
2022/10/28 10:37:20;;;;;;;4.23;2.63;;;24.70;68.60;;;;;;5107884;28;20459;-82
2022/10/28 10:40:03;;;;;;;4.90;3.30;;;24.70;68.60;;;;;;5101390;28;20454;-79
2022/10/28 10:42:32;;;;;;;3.10;2.90;;;24.70;68.50;;;;;;5099001;28;20462;-80
2022/10/28 10:45:22;;;;;;;5.20;3.57;;;24.70;68.50;;;;;;5099889;28;20482;-78
2022/10/28 10:48:09;;;;;;;3.30;3.10;;;24.80;68.40;;;;;;5103427;28;20463;-78
2022/10/28 10:50:38;;;;;;;3.63;3.33;;;24.80;68.30;;;;;;5095434;28;20530;-76
2022/10/28 10:53:07;;;;;;;3.97;3.67;;;24.80;68.20;;;;;;5095474;28;20466;-76
2022/10/28 10:55:39;;;;;;;2.83;2.63;;;24.80;68.20;;;;;;5102644;28;20466;-79
2022/10/28 10:58:17;;;;;;;6.33;4.57;;;24.90;68.30;;;;;;5100699;28;20545;-80
2022/10/28 11:00:49;;;;;;;4.13;3.60;;;24.90;68.30;;;;;;5102538;28;20533;-80
2022/10/28 11:03:21;;;;;;;5.00;3.60;;;25.00;68.10;;;;;;5096516;28;20976;-78
2022/10/28 11:05:55;;;;;;;4.30;3.90;;;25.00;67.90;;;;;;5097338;28;20459;-79
2022/10/28 11:08:43;;;;;;;9.70;3.97;;;25.10;67.80;;;;;;5100415;28;20478;-78
2022/10/28 11:11:21;;;;;;;3.57;3.37;;;25.10;67.50;;;;;;5101834;28;20458;-77
2022/10/28 11:14:03;;;;;;;4.70;3.53;;;25.20;67.10;;;;;;5105202;28;20830;-75
2022/10/28 11:16:31;;;;;;;4.40;3.67;;;25.40;66.80;;;;;;5097722;28;20895;-79
2022/10/28 11:19:19;;;;;;;7.10;4.30;;;25.50;66.50;;;;;;5108385;28;20459;-79
2022/10/28 11:22:20;;;;;;;3.27;3.00;;;25.70;66.10;;;;;;5101752;28;20631;-79
2022/10/28 11:25:25;;;;;;;4.00;3.60;;;25.70;65.90;;;;;;5057054;28;20866;-80
2022/10/28 11:28:06;;;;;;;4.10;3.67;;;25.90;65.60;;;;;;5099525;28;20450;-76
2022/10/28 11:30:45;;;;;;;3.80;3.50;;;25.90;65.60;;;;;;5102137;28;20499;-74
2022/10/28 11:33:16;;;;;;;3.20;3.00;;;26.00;65.50;;;;;;5103342;28;20193;-74
2022/10/28 11:36:11;;;;;;;4.63;3.67;;;26.10;65.30;;;;;;5096753;28;20844;-74
2022/10/28 11:39:07;;;;;;;3.80;3.17;;;26.10;65.20;;;;;;5093131;28;20906;-74
2022/10/28 11:41:48;;;;;;;3.80;3.50;;;26.10;65.10;;;;;;5099556;28;21118;-73
2022/10/28 11:44:41;;;;;;;3.70;3.30;;;26.10;65.00;;;;;;5098157;28;20493;-73
2022/10/28 11:47:26;;;;;;;4.50;3.37;;;26.10;65.00;;;;;;5100012;28;20944;-73
2022/10/28 11:50:10;;;;;;;2.87;2.63;;;26.00;65.20;;;;;;5099979;28;20454;-72
2022/10/28 11:52:52;;;;;;;5.57;3.30;;;25.90;65.40;;;;;;5099662;28;20469;-73
2022/10/28 11:55:30;;;;;;;4.00;3.70;;;25.80;65.70;;;;;;5099206;28;20456;-73
2022/10/28 11:58:12;;;;;;;4.83;3.70;;;25.80;65.90;;;;;;5097670;28;20479;-73
2022/10/28 12:00:57;;;;;;;3.67;3.30;;;25.90;65.80;;;;;;5098115;28;20449;-72
2022/10/28 12:03:53;;;;;;;3.93;3.43;;;25.90;65.80;;;;;;5100110;28;20477;-74
2022/10/28 12:06:32;;;;;;;5.60;3.07;;;26.00;65.60;;;;;;5096220;28;20972;-73
2022/10/28 12:09:12;;;;;;;7.00;3.27;;;26.10;65.50;;;;;;5095372;28;20539;-75
2022/10/28 12:11:55;;;;;;;4.27;3.87;;;26.10;65.30;;;;;;5100275;28;20912;-73
2022/10/28 12:14:32;;;;;;;4.20;3.50;;;26.20;65.10;;;;;;5108312;28;20994;-73
2022/10/28 12:17:11;;;;;;;3.47;3.17;;;26.30;65.00;;;;;;5098690;28;20956;-76
2022/10/28 12:19:45;;;;;;;4.00;3.47;;;26.30;65.00;;;;;;5099560;28;20932;-72
2022/10/28 12:22:21;;;;;;;3.40;3.10;;;26.30;65.00;;;;;;5109453;28;20455;-72
2022/10/28 12:24:53;;;;;;;3.47;3.17;;;26.30;64.90;;;;;;5102209;28;21419;-90
2022/10/28 12:27:27;;;;;;;6.03;3.60;;;26.40;64.90;;;;;;5116570;28;20465;-80
2022/10/28 12:30:00;;;;;;;3.43;3.13;;;26.40;64.80;;;;;;5110246;28;20490;-83
2022/10/28 12:32:33;;;;;;;3.57;3.27;;;26.50;64.80;;;;;;5101011;28;20474;-87
2022/10/28 12:35:05;;;;;;;3.80;3.50;;;26.60;64.80;;;;;;5106985;28;20471;-85
2022/10/28 12:37:39;;;;;;;3.63;3.30;;;26.70;64.60;;;;;;5113316;28;20455;-85
2022/10/28 12:40:17;;;;;;;4.60;4.20;;;26.80;64.60;;;;;;5107533;28;20512;-87
2022/10/28 12:42:50;;;;;;;3.13;2.93;;;26.90;64.50;;;;;;5099708;28;20468;-88
2022/10/28 12:45:21;;;;;;;2.80;2.60;;;26.90;64.30;;;;;;5112858;28;20464;-86
2022/10/28 12:47:58;;;;;;;3.63;3.17;;;27.00;64.30;;;;;;5113510;28;20970;-84
2022/10/28 12:50:32;;;;;;;3.90;3.43;;;27.10;64.20;;;;;;5121765;28;20460;-80
2022/10/28 12:53:17;;;;;;;3.73;3.43;;;27.20;64.10;;;;;;5108261;28;20470;-85
2022/10/28 12:55:50;;;;;;;4.00;3.80;;;27.20;64.10;;;;;;5112918;28;20463;-88
2022/10/28 12:58:27;;;;;;;3.97;3.47;;;27.20;64.00;;;;;;5110644;28;21095;-83
2022/10/28 13:01:01;;;;;;;2.93;2.63;;;27.20;64.20;;;;;;5104246;28;20957;-86
2022/10/28 13:03:31;;;;;;;3.80;3.40;;;27.10;64.40;;;;;;5096149;28;20474;-87
2022/10/28 13:06:32;;;;;;;3.20;2.90;;;27.10;64.50;;;;;;5108207;28;20541;-82
2022/10/28 13:09:23;;;;;;;6.63;3.13;;;27.10;64.60;;;;;;5117292;28;20458;-86
2022/10/28 13:12:28;;;;;;;3.40;3.10;;;27.10;64.60;;;;;;5104550;28;20487;-83
2022/10/28 13:15:20;;;;;;;4.17;3.10;;;27.10;64.60;;;;;;5062466;28;20464;-84
2022/10/28 13:18:05;;;;;;;2.70;2.57;;;27.10;64.80;;;;;;5063609;28;20951;-87
2022/10/28 13:20:46;;;;;;;3.60;2.67;;;27.10;64.90;;;;;;5066853;28;20474;-84